sensor_id;sensor_type;location;lat;lon;timestamp;P1;durP1;ratioP1;P2;durP2;ratioP2
1262;SDS011;62267;50.112;8.704;2023-02-28T00:00:37;4.60;;;4.20;;
1262;SDS011;62267;50.112;8.704;2023-02-28T00:03:05;4.30;;;3.90;;
1262;SDS011;62267;50.112;8.704;2023-02-28T00:05:32;4.50;;;4.13;;
1262;SDS011;62267;50.112;8.704;2023-02-28T00:08:00;4.60;;;4.20;;
1262;SDS011;62267;50.112;8.704;2023-02-28T00:10:28;4.63;;;4.23;;
1262;SDS011;62267;50.112;8.704;2023-02-28T00:12:59;4.53;;;4.13;;
1262;SDS011;62267;50.112;8.704;2023-02-28T00:15:27;4.93;;;4.40;;
1262;SDS011;62267;50.112;8.704;2023-02-28T00:17:54;7.07;;;5.77;;
1262;SDS011;62267;50.112;8.704;2023-02-28T00:20:22;5.60;;;5.00;;
1262;SDS011;62267;50.112;8.704;2023-02-28T00:22:50;6.43;;;5.70;;
1262;SDS011;62267;50.112;8.704;2023-02-28T00:25:19;5.27;;;4.80;;
1262;SDS011;62267;50.112;8.704;2023-02-28T00:27:48;6.73;;;5.77;;
1262;SDS011;62267;50.112;8.704;2023-02-28T00:32:43;6.70;;;6.00;;
1262;SDS011;62267;50.112;8.704;2023-02-28T00:35:11;6.40;;;5.80;;
1262;SDS011;62267;50.112;8.704;2023-02-28T00:37:40;6.50;;;5.90;;
1262;SDS011;62267;50.112;8.704;2023-02-28T00:40:08;5.47;;;4.93;;
1262;SDS011;62267;50.112;8.704;2023-02-28T00:42:36;6.67;;;5.27;;
1262;SDS011;62267;50.112;8.704;2023-02-28T00:45:04;6.20;;;5.60;;
1262;SDS011;62267;50.112;8.704;2023-02-28T00:47:31;6.37;;;5.80;;
1262;SDS011;62267;50.112;8.704;2023-02-28T00:49:59;6.40;;;5.80;;
1262;SDS011;62267;50.112;8.704;2023-02-28T00:52:27;8.03;;;6.53;;
1262;SDS011;62267;50.112;8.704;2023-02-28T00:54:54;6.77;;;6.03;;
1262;SDS011;62267;50.112;8.704;2023-02-28T00:57:22;5.90;;;5.50;;
1262;SDS011;62267;50.112;8.704;2023-02-28T00:59:49;6.57;;;6.00;;
1262;SDS011;62267;50.112;8.704;2023-02-28T01:02:17;8.70;;;6.10;;
1262;SDS011;62267;50.112;8.704;2023-02-28T01:04:46;7.73;;;6.40;;
1262;SDS011;62267;50.112;8.704;2023-02-28T01:07:14;8.40;;;6.83;;
1262;SDS011;62267;50.112;8.704;2023-02-28T01:09:41;7.13;;;6.43;;
1262;SDS011;62267;50.112;8.704;2023-02-28T01:12:09;7.20;;;6.50;;
1262;SDS011;62267;50.112;8.704;2023-02-28T01:14:36;6.63;;;6.00;;
1262;SDS011;62267;50.112;8.704;2023-02-28T01:17:04;6.60;;;6.00;;
1262;SDS011;62267;50.112;8.704;2023-02-28T01:19:33;7.53;;;6.77;;
1262;SDS011;62267;50.112;8.704;2023-02-28T01:22:02;6.80;;;6.10;;
1262;SDS011;62267;50.112;8.704;2023-02-28T01:24:30;7.30;;;6.57;;
1262;SDS011;62267;50.112;8.704;2023-02-28T01:26:59;11.50;;;6.50;;
1262;SDS011;62267;50.112;8.704;2023-02-28T01:29:27;8.13;;;6.10;;
1262;SDS011;62267;50.112;8.704;2023-02-28T01:31:54;7.70;;;5.80;;
1262;SDS011;62267;50.112;8.704;2023-02-28T01:34:23;6.33;;;5.73;;
1262;SDS011;62267;50.112;8.704;2023-02-28T01:36:51;7.77;;;6.50;;
1262;SDS011;62267;50.112;8.704;2023-02-28T01:39:18;6.60;;;6.00;;
1262;SDS011;62267;50.112;8.704;2023-02-28T01:41:46;7.00;;;6.30;;
1262;SDS011;62267;50.112;8.704;2023-02-28T01:47:00;10.60;;;6.80;;
1262;SDS011;62267;50.112;8.704;2023-02-28T01:49:28;6.73;;;6.00;;
1262;SDS011;62267;50.112;8.704;2023-02-28T01:51:57;6.87;;;6.17;;
1262;SDS011;62267;50.112;8.704;2023-02-28T01:54:26;7.03;;;6.37;;
1262;SDS011;62267;50.112;8.704;2023-02-28T01:57:03;8.20;;;6.37;;
1262;SDS011;62267;50.112;8.704;2023-02-28T01:59:35;6.77;;;6.17;;
1262;SDS011;62267;50.112;8.704;2023-02-28T02:02:04;6.90;;;6.20;;
1262;SDS011;62267;50.112;8.704;2023-02-28T02:04:34;6.87;;;6.17;;
1262;SDS011;62267;50.112;8.704;2023-02-28T02:07:04;8.00;;;6.30;;
1262;SDS011;62267;50.112;8.704;2023-02-28T02:09:31;7.13;;;6.13;;
1262;SDS011;62267;50.112;8.704;2023-02-28T02:11:59;6.83;;;6.20;;
1262;SDS011;62267;50.112;8.704;2023-02-28T02:17:16;8.23;;;6.60;;
1262;SDS011;62267;50.112;8.704;2023-02-28T02:25:23;6.20;;;5.60;;
1262;SDS011;62267;50.112;8.704;2023-02-28T02:28:04;6.37;;;5.77;;
1262;SDS011;62267;50.112;8.704;2023-02-28T02:33:14;7.17;;;5.67;;
1262;SDS011;62267;50.112;8.704;2023-02-28T02:35:54;6.60;;;6.10;;
1262;SDS011;62267;50.112;8.704;2023-02-28T02:38:30;7.07;;;6.37;;
1262;SDS011;62267;50.112;8.704;2023-02-28T02:41:04;8.33;;;6.00;;
1262;SDS011;62267;50.112;8.704;2023-02-28T02:46:14;6.70;;;5.70;;
1262;SDS011;62267;50.112;8.704;2023-02-28T02:48:44;9.57;;;4.97;;
1262;SDS011;62267;50.112;8.704;2023-02-28T02:51:16;6.20;;;5.63;;
1262;SDS011;62267;50.112;8.704;2023-02-28T02:53:49;7.53;;;5.63;;
1262;SDS011;62267;50.112;8.704;2023-02-28T02:56:17;6.33;;;5.73;;
1262;SDS011;62267;50.112;8.704;2023-02-28T02:58:47;9.43;;;5.67;;
1262;SDS011;62267;50.112;8.704;2023-02-28T03:01:20;5.90;;;5.40;;
1262;SDS011;62267;50.112;8.704;2023-02-28T03:03:56;6.67;;;6.00;;
1262;SDS011;62267;50.112;8.704;2023-02-28T03:06:25;6.57;;;5.97;;
1262;SDS011;62267;50.112;8.704;2023-02-28T03:08:52;7.73;;;6.13;;
1262;SDS011;62267;50.112;8.704;2023-02-28T03:11:21;6.13;;;5.53;;
1262;SDS011;62267;50.112;8.704;2023-02-28T03:16:29;5.13;;;4.73;;
1262;SDS011;62267;50.112;8.704;2023-02-28T03:21:51;6.50;;;5.70;;
1262;SDS011;62267;50.112;8.704;2023-02-28T03:24:28;5.80;;;5.27;;
1262;SDS011;62267;50.112;8.704;2023-02-28T03:26:58;6.40;;;5.50;;
1262;SDS011;62267;50.112;8.704;2023-02-28T03:32:02;7.63;;;5.90;;
1262;SDS011;62267;50.112;8.704;2023-02-28T03:34:36;8.90;;;6.17;;
1262;SDS011;62267;50.112;8.704;2023-02-28T03:37:09;7.23;;;5.60;;
1262;SDS011;62267;50.112;8.704;2023-02-28T03:39:46;6.00;;;5.43;;
1262;SDS011;62267;50.112;8.704;2023-02-28T03:42:18;6.57;;;5.97;;
1262;SDS011;62267;50.112;8.704;2023-02-28T03:44:59;7.90;;;5.77;;
1262;SDS011;62267;50.112;8.704;2023-02-28T03:47:41;6.23;;;5.60;;
1262;SDS011;62267;50.112;8.704;2023-02-28T03:52:42;7.07;;;5.67;;
1262;SDS011;62267;50.112;8.704;2023-02-28T03:55:12;5.90;;;5.30;;
1262;SDS011;62267;50.112;8.704;2023-02-28T03:57:43;6.27;;;5.40;;
1262;SDS011;62267;50.112;8.704;2023-02-28T04:00:20;5.90;;;5.30;;
1262;SDS011;62267;50.112;8.704;2023-02-28T04:02:48;8.70;;;5.13;;
1262;SDS011;62267;50.112;8.704;2023-02-28T04:05:21;5.70;;;5.00;;
1262;SDS011;62267;50.112;8.704;2023-02-28T04:07:49;7.40;;;5.10;;
1262;SDS011;62267;50.112;8.704;2023-02-28T04:10:16;5.83;;;5.23;;
1262;SDS011;62267;50.112;8.704;2023-02-28T04:12:44;8.23;;;5.50;;
1262;SDS011;62267;50.112;8.704;2023-02-28T04:15:11;6.00;;;5.40;;
1262;SDS011;62267;50.112;8.704;2023-02-28T04:17:38;5.17;;;4.80;;
1262;SDS011;62267;50.112;8.704;2023-02-28T04:20:05;6.67;;;5.33;;
1262;SDS011;62267;50.112;8.704;2023-02-28T04:22:35;5.43;;;4.93;;
1262;SDS011;62267;50.112;8.704;2023-02-28T04:25:03;6.13;;;4.80;;
1262;SDS011;62267;50.112;8.704;2023-02-28T04:27:32;6.47;;;5.40;;
1262;SDS011;62267;50.112;8.704;2023-02-28T04:29:59;5.83;;;4.80;;
1262;SDS011;62267;50.112;8.704;2023-02-28T04:32:26;6.30;;;5.70;;
1262;SDS011;62267;50.112;8.704;2023-02-28T04:34:53;5.83;;;5.20;;
1262;SDS011;62267;50.112;8.704;2023-02-28T04:37:20;5.40;;;4.90;;
1262;SDS011;62267;50.112;8.704;2023-02-28T04:39:54;5.80;;;5.30;;
1262;SDS011;62267;50.112;8.704;2023-02-28T04:42:21;5.80;;;5.23;;
1262;SDS011;62267;50.112;8.704;2023-02-28T04:44:48;5.47;;;4.97;;
1262;SDS011;62267;50.112;8.704;2023-02-28T04:47:15;5.90;;;5.07;;
1262;SDS011;62267;50.112;8.704;2023-02-28T04:49:42;6.13;;;5.50;;
1262;SDS011;62267;50.112;8.704;2023-02-28T04:52:09;6.07;;;5.40;;
1262;SDS011;62267;50.112;8.704;2023-02-28T04:54:37;7.67;;;6.83;;
1262;SDS011;62267;50.112;8.704;2023-02-28T04:57:05;7.30;;;5.47;;
1262;SDS011;62267;50.112;8.704;2023-02-28T04:59:32;5.70;;;5.20;;
1262;SDS011;62267;50.112;8.704;2023-02-28T05:01:59;10.93;;;4.70;;
1262;SDS011;62267;50.112;8.704;2023-02-28T05:04:36;6.30;;;5.27;;
1262;SDS011;62267;50.112;8.704;2023-02-28T05:07:03;7.10;;;5.40;;
1262;SDS011;62267;50.112;8.704;2023-02-28T05:09:31;5.50;;;5.00;;
1262;SDS011;62267;50.112;8.704;2023-02-28T05:11:59;5.43;;;4.93;;
1262;SDS011;62267;50.112;8.704;2023-02-28T05:14:26;4.90;;;4.50;;
1262;SDS011;62267;50.112;8.704;2023-02-28T05:17:00;5.23;;;4.73;;
1262;SDS011;62267;50.112;8.704;2023-02-28T05:19:27;6.53;;;5.80;;
1262;SDS011;62267;50.112;8.704;2023-02-28T05:21:55;6.50;;;4.80;;
1262;SDS011;62267;50.112;8.704;2023-02-28T05:24:22;5.60;;;5.10;;
1262;SDS011;62267;50.112;8.704;2023-02-28T05:26:50;5.17;;;4.40;;
1262;SDS011;62267;50.112;8.704;2023-02-28T05:29:18;5.83;;;4.90;;
1262;SDS011;62267;50.112;8.704;2023-02-28T05:31:46;5.37;;;4.40;;
1262;SDS011;62267;50.112;8.704;2023-02-28T05:34:14;5.80;;;4.70;;
1262;SDS011;62267;50.112;8.704;2023-02-28T05:36:42;5.47;;;4.97;;
1262;SDS011;62267;50.112;8.704;2023-02-28T05:39:09;6.00;;;4.80;;
1262;SDS011;62267;50.112;8.704;2023-02-28T05:41:39;5.40;;;4.90;;
1262;SDS011;62267;50.112;8.704;2023-02-28T05:44:07;5.87;;;4.73;;
1262;SDS011;62267;50.112;8.704;2023-02-28T05:46:34;5.70;;;5.00;;
1262;SDS011;62267;50.112;8.704;2023-02-28T05:49:02;7.40;;;5.23;;
1262;SDS011;62267;50.112;8.704;2023-02-28T05:51:29;5.50;;;4.43;;
1262;SDS011;62267;50.112;8.704;2023-02-28T05:54:00;5.33;;;4.60;;
1262;SDS011;62267;50.112;8.704;2023-02-28T05:56:29;4.97;;;4.47;;
1262;SDS011;62267;50.112;8.704;2023-02-28T05:58:56;6.53;;;5.20;;
1262;SDS011;62267;50.112;8.704;2023-02-28T06:01:25;4.73;;;4.33;;
1262;SDS011;62267;50.112;8.704;2023-02-28T06:03:53;6.97;;;4.90;;
1262;SDS011;62267;50.112;8.704;2023-02-28T06:06:20;6.50;;;4.87;;
1262;SDS011;62267;50.112;8.704;2023-02-28T06:08:47;5.30;;;4.67;;
1262;SDS011;62267;50.112;8.704;2023-02-28T06:11:18;4.93;;;4.43;;
1262;SDS011;62267;50.112;8.704;2023-02-28T06:13:46;5.60;;;4.73;;
1262;SDS011;62267;50.112;8.704;2023-02-28T06:16:13;5.40;;;4.90;;
1262;SDS011;62267;50.112;8.704;2023-02-28T06:18:40;6.40;;;4.10;;
1262;SDS011;62267;50.112;8.704;2023-02-28T06:21:08;5.60;;;5.03;;
1262;SDS011;62267;50.112;8.704;2023-02-28T06:23:37;5.37;;;4.77;;
1262;SDS011;62267;50.112;8.704;2023-02-28T06:26:05;6.73;;;4.70;;
1262;SDS011;62267;50.112;8.704;2023-02-28T06:28:33;5.67;;;5.13;;
1262;SDS011;62267;50.112;8.704;2023-02-28T06:31:05;5.30;;;4.70;;
1262;SDS011;62267;50.112;8.704;2023-02-28T06:33:33;6.27;;;5.13;;
1262;SDS011;62267;50.112;8.704;2023-02-28T06:36:01;7.23;;;5.57;;
1262;SDS011;62267;50.112;8.704;2023-02-28T06:38:28;5.20;;;4.70;;
1262;SDS011;62267;50.112;8.704;2023-02-28T06:40:56;6.50;;;5.10;;
1262;SDS011;62267;50.112;8.704;2023-02-28T06:43:24;5.87;;;4.90;;
1262;SDS011;62267;50.112;8.704;2023-02-28T06:45:54;6.50;;;5.13;;
1262;SDS011;62267;50.112;8.704;2023-02-28T06:48:21;5.60;;;5.00;;
1262;SDS011;62267;50.112;8.704;2023-02-28T06:50:48;7.43;;;5.30;;
1262;SDS011;62267;50.112;8.704;2023-02-28T06:53:16;6.13;;;5.53;;
1262;SDS011;62267;50.112;8.704;2023-02-28T06:55:43;7.17;;;5.20;;
1262;SDS011;62267;50.112;8.704;2023-02-28T06:58:10;5.63;;;5.10;;
1262;SDS011;62267;50.112;8.704;2023-02-28T07:00:50;7.73;;;5.60;;
1262;SDS011;62267;50.112;8.704;2023-02-28T07:03:17;5.40;;;4.90;;
1262;SDS011;62267;50.112;8.704;2023-02-28T07:05:45;6.83;;;5.80;;
1262;SDS011;62267;50.112;8.704;2023-02-28T07:08:14;10.97;;;7.33;;
1262;SDS011;62267;50.112;8.704;2023-02-28T07:10:41;6.20;;;5.30;;
1262;SDS011;62267;50.112;8.704;2023-02-28T07:13:08;8.13;;;5.10;;
1262;SDS011;62267;50.112;8.704;2023-02-28T07:15:36;7.30;;;4.70;;
1262;SDS011;62267;50.112;8.704;2023-02-28T07:18:08;6.83;;;5.10;;
1262;SDS011;62267;50.112;8.704;2023-02-28T07:20:35;9.40;;;6.63;;
1262;SDS011;62267;50.112;8.704;2023-02-28T07:23:04;7.30;;;6.33;;
1262;SDS011;62267;50.112;8.704;2023-02-28T07:25:31;7.40;;;5.67;;
1262;SDS011;62267;50.112;8.704;2023-02-28T07:27:59;8.87;;;5.83;;
1262;SDS011;62267;50.112;8.704;2023-02-28T07:30:26;7.10;;;6.40;;
1262;SDS011;62267;50.112;8.704;2023-02-28T07:32:53;8.20;;;5.70;;
1262;SDS011;62267;50.112;8.704;2023-02-28T07:35:22;7.57;;;5.93;;
1262;SDS011;62267;50.112;8.704;2023-02-28T07:37:50;7.13;;;5.60;;
1262;SDS011;62267;50.112;8.704;2023-02-28T07:40:17;6.30;;;5.70;;
1262;SDS011;62267;50.112;8.704;2023-02-28T07:42:46;9.63;;;6.53;;
1262;SDS011;62267;50.112;8.704;2023-02-28T07:45:16;9.60;;;5.40;;
1262;SDS011;62267;50.112;8.704;2023-02-28T07:47:43;7.33;;;6.50;;
1262;SDS011;62267;50.112;8.704;2023-02-28T07:50:11;10.30;;;6.57;;
1262;SDS011;62267;50.112;8.704;2023-02-28T07:52:39;5.53;;;4.87;;
1262;SDS011;62267;50.112;8.704;2023-02-28T07:55:07;8.40;;;5.63;;
1262;SDS011;62267;50.112;8.704;2023-02-28T07:57:35;7.63;;;6.17;;
1262;SDS011;62267;50.112;8.704;2023-02-28T08:00:04;10.00;;;5.70;;
1262;SDS011;62267;50.112;8.704;2023-02-28T08:02:36;10.20;;;6.43;;
1262;SDS011;62267;50.112;8.704;2023-02-28T08:05:04;8.80;;;6.33;;
1262;SDS011;62267;50.112;8.704;2023-02-28T08:07:31;8.03;;;5.40;;
1262;SDS011;62267;50.112;8.704;2023-02-28T08:09:59;9.93;;;6.40;;
1262;SDS011;62267;50.112;8.704;2023-02-28T08:12:26;6.87;;;6.13;;
1262;SDS011;62267;50.112;8.704;2023-02-28T08:14:55;11.43;;;6.40;;
1262;SDS011;62267;50.112;8.704;2023-02-28T08:17:22;8.30;;;5.80;;
1262;SDS011;62267;50.112;8.704;2023-02-28T08:19:49;9.20;;;6.67;;
1262;SDS011;62267;50.112;8.704;2023-02-28T08:22:16;7.93;;;6.37;;
1262;SDS011;62267;50.112;8.704;2023-02-28T08:24:43;19.83;;;6.80;;
1262;SDS011;62267;50.112;8.704;2023-02-28T08:27:12;8.80;;;6.10;;
1262;SDS011;62267;50.112;8.704;2023-02-28T08:29:40;7.17;;;5.73;;
1262;SDS011;62267;50.112;8.704;2023-02-28T08:32:07;5.40;;;4.90;;
1262;SDS011;62267;50.112;8.704;2023-02-28T08:34:54;5.80;;;5.20;;
1262;SDS011;62267;50.112;8.704;2023-02-28T08:37:21;8.00;;;5.90;;
1262;SDS011;62267;50.112;8.704;2023-02-28T08:39:48;7.73;;;5.97;;
1262;SDS011;62267;50.112;8.704;2023-02-28T08:42:15;7.97;;;5.87;;
1262;SDS011;62267;50.112;8.704;2023-02-28T08:44:43;7.17;;;5.90;;
1262;SDS011;62267;50.112;8.704;2023-02-28T08:47:10;8.23;;;5.40;;
1262;SDS011;62267;50.112;8.704;2023-02-28T08:49:37;8.80;;;5.50;;
1262;SDS011;62267;50.112;8.704;2023-02-28T08:52:04;20.57;;;9.77;;
1262;SDS011;62267;50.112;8.704;2023-02-28T08:54:32;8.20;;;5.60;;
1262;SDS011;62267;50.112;8.704;2023-02-28T08:57:00;7.27;;;5.53;;
1262;SDS011;62267;50.112;8.704;2023-02-28T08:59:27;6.70;;;5.40;;
1262;SDS011;62267;50.112;8.704;2023-02-28T09:01:54;6.40;;;5.80;;
1262;SDS011;62267;50.112;8.704;2023-02-28T09:04:22;7.50;;;5.73;;
1262;SDS011;62267;50.112;8.704;2023-02-28T09:06:50;9.33;;;6.30;;
1262;SDS011;62267;50.112;8.704;2023-02-28T09:09:18;7.53;;;5.87;;
1262;SDS011;62267;50.112;8.704;2023-02-28T09:11:45;7.67;;;5.47;;
1262;SDS011;62267;50.112;8.704;2023-02-28T09:14:12;6.47;;;5.60;;
1262;SDS011;62267;50.112;8.704;2023-02-28T09:16:39;8.00;;;5.50;;
1262;SDS011;62267;50.112;8.704;2023-02-28T09:19:10;9.17;;;5.40;;
1262;SDS011;62267;50.112;8.704;2023-02-28T09:21:37;8.10;;;6.50;;
1262;SDS011;62267;50.112;8.704;2023-02-28T09:24:05;9.53;;;5.60;;
1262;SDS011;62267;50.112;8.704;2023-02-28T09:26:33;8.10;;;5.60;;
1262;SDS011;62267;50.112;8.704;2023-02-28T09:29:08;8.20;;;5.57;;
1262;SDS011;62267;50.112;8.704;2023-02-28T09:31:37;5.30;;;4.83;;
1262;SDS011;62267;50.112;8.704;2023-02-28T09:34:04;9.07;;;6.13;;
1262;SDS011;62267;50.112;8.704;2023-02-28T09:36:31;6.07;;;5.47;;
1262;SDS011;62267;50.112;8.704;2023-02-28T09:39:10;8.40;;;5.57;;
1262;SDS011;62267;50.112;8.704;2023-02-28T09:41:41;9.10;;;6.30;;
1262;SDS011;62267;50.112;8.704;2023-02-28T09:44:27;7.03;;;6.43;;
1262;SDS011;62267;50.112;8.704;2023-02-28T09:46:57;6.43;;;5.80;;
1262;SDS011;62267;50.112;8.704;2023-02-28T09:49:28;6.13;;;5.53;;
1262;SDS011;62267;50.112;8.704;2023-02-28T09:52:04;15.93;;;6.50;;
1262;SDS011;62267;50.112;8.704;2023-02-28T09:54:35;12.57;;;7.00;;
1262;SDS011;62267;50.112;8.704;2023-02-28T09:59:51;9.00;;;6.53;;
1262;SDS011;62267;50.112;8.704;2023-02-28T10:02:38;9.33;;;7.03;;
1262;SDS011;62267;50.112;8.704;2023-02-28T10:05:11;11.33;;;6.17;;
1262;SDS011;62267;50.112;8.704;2023-02-28T10:07:50;8.10;;;6.23;;
1262;SDS011;62267;50.112;8.704;2023-02-28T10:12:52;12.53;;;6.97;;
1262;SDS011;62267;50.112;8.704;2023-02-28T10:15:21;7.63;;;6.20;;
1262;SDS011;62267;50.112;8.704;2023-02-28T10:17:48;8.37;;;6.23;;
1262;SDS011;62267;50.112;8.704;2023-02-28T10:20:26;6.97;;;5.77;;
1262;SDS011;62267;50.112;8.704;2023-02-28T10:23:04;8.80;;;6.30;;
1262;SDS011;62267;50.112;8.704;2023-02-28T10:25:34;8.00;;;6.50;;
1262;SDS011;62267;50.112;8.704;2023-02-28T10:30:32;9.73;;;5.83;;
1262;SDS011;62267;50.112;8.704;2023-02-28T10:32:59;11.90;;;7.50;;
1262;SDS011;62267;50.112;8.704;2023-02-28T10:35:27;7.03;;;6.40;;
1262;SDS011;62267;50.112;8.704;2023-02-28T10:37:56;11.63;;;7.33;;
1262;SDS011;62267;50.112;8.704;2023-02-28T10:43:02;13.73;;;6.87;;
1262;SDS011;62267;50.112;8.704;2023-02-28T10:45:33;7.70;;;6.20;;
1262;SDS011;62267;50.112;8.704;2023-02-28T10:50:42;8.23;;;5.90;;
1262;SDS011;62267;50.112;8.704;2023-02-28T10:55:37;15.93;;;6.73;;
1262;SDS011;62267;50.112;8.704;2023-02-28T10:58:18;7.60;;;6.13;;
1262;SDS011;62267;50.112;8.704;2023-02-28T11:00:47;6.93;;;6.23;;
1262;SDS011;62267;50.112;8.704;2023-02-28T11:03:25;7.10;;;6.37;;
1262;SDS011;62267;50.112;8.704;2023-02-28T11:05:55;12.50;;;6.50;;
1262;SDS011;62267;50.112;8.704;2023-02-28T11:08:23;6.60;;;5.23;;
1262;SDS011;62267;50.112;8.704;2023-02-28T11:10:54;6.57;;;5.83;;
1262;SDS011;62267;50.112;8.704;2023-02-28T11:13:25;6.97;;;5.53;;
1262;SDS011;62267;50.112;8.704;2023-02-28T11:15:53;15.30;;;7.10;;
1262;SDS011;62267;50.112;8.704;2023-02-28T11:18:27;7.50;;;6.80;;
1262;SDS011;62267;50.112;8.704;2023-02-28T11:20:57;8.53;;;6.07;;
1262;SDS011;62267;50.112;8.704;2023-02-28T11:23:26;6.30;;;5.60;;
1262;SDS011;62267;50.112;8.704;2023-02-28T11:25:57;8.77;;;5.80;;
1262;SDS011;62267;50.112;8.704;2023-02-28T11:28:32;8.53;;;6.43;;
1262;SDS011;62267;50.112;8.704;2023-02-28T11:33:28;8.07;;;6.77;;
1262;SDS011;62267;50.112;8.704;2023-02-28T11:36:04;9.87;;;8.23;;
1262;SDS011;62267;50.112;8.704;2023-02-28T11:38:36;7.97;;;6.40;;
1262;SDS011;62267;50.112;8.704;2023-02-28T11:41:06;8.87;;;6.23;;
1262;SDS011;62267;50.112;8.704;2023-02-28T11:43:46;7.10;;;6.40;;
1262;SDS011;62267;50.112;8.704;2023-02-28T11:46:29;9.27;;;7.33;;
1262;SDS011;62267;50.112;8.704;2023-02-28T11:49:00;7.87;;;7.07;;
1262;SDS011;62267;50.112;8.704;2023-02-28T11:51:33;18.47;;;10.90;;
1262;SDS011;62267;50.112;8.704;2023-02-28T11:56:33;10.90;;;8.77;;
1262;SDS011;62267;50.112;8.704;2023-02-28T12:07:02;7.57;;;6.77;;
1262;SDS011;62267;50.112;8.704;2023-02-28T12:09:37;9.27;;;7.60;;
1262;SDS011;62267;50.112;8.704;2023-02-28T12:12:15;12.43;;;8.40;;
1262;SDS011;62267;50.112;8.704;2023-02-28T12:14:53;7.40;;;6.70;;
1262;SDS011;62267;50.112;8.704;2023-02-28T12:17:38;6.97;;;6.10;;
1262;SDS011;62267;50.112;8.704;2023-02-28T12:25:37;7.87;;;6.60;;
1262;SDS011;62267;50.112;8.704;2023-02-28T12:28:10;11.50;;;8.10;;
1262;SDS011;62267;50.112;8.704;2023-02-28T12:30:49;9.60;;;8.60;;
1262;SDS011;62267;50.112;8.704;2023-02-28T12:33:18;11.30;;;7.73;;
1262;SDS011;62267;50.112;8.704;2023-02-28T12:35:51;10.47;;;8.67;;
1262;SDS011;62267;50.112;8.704;2023-02-28T12:38:34;8.90;;;7.40;;
1262;SDS011;62267;50.112;8.704;2023-02-28T12:41:04;8.47;;;7.10;;
1262;SDS011;62267;50.112;8.704;2023-02-28T12:43:35;13.17;;;8.90;;
1262;SDS011;62267;50.112;8.704;2023-02-28T12:46:14;9.33;;;7.70;;
1262;SDS011;62267;50.112;8.704;2023-02-28T12:48:46;11.73;;;9.47;;
1262;SDS011;62267;50.112;8.704;2023-02-28T12:51:15;11.37;;;8.07;;
1262;SDS011;62267;50.112;8.704;2023-02-28T12:53:52;12.30;;;9.03;;
1262;SDS011;62267;50.112;8.704;2023-02-28T12:56:26;12.20;;;8.40;;
1262;SDS011;62267;50.112;8.704;2023-02-28T12:58:58;10.70;;;8.53;;
1262;SDS011;62267;50.112;8.704;2023-02-28T13:01:36;13.43;;;7.97;;
1262;SDS011;62267;50.112;8.704;2023-02-28T13:07:28;9.40;;;7.33;;
1262;SDS011;62267;50.112;8.704;2023-02-28T13:10:02;18.60;;;10.07;;
1262;SDS011;62267;50.112;8.704;2023-02-28T13:12:31;11.40;;;8.50;;
1262;SDS011;62267;50.112;8.704;2023-02-28T13:15:16;9.20;;;8.30;;
1262;SDS011;62267;50.112;8.704;2023-02-28T13:17:49;10.47;;;8.37;;
1262;SDS011;62267;50.112;8.704;2023-02-28T13:22:48;8.50;;;7.70;;
1262;SDS011;62267;50.112;8.704;2023-02-28T13:27:50;10.53;;;8.80;;
1262;SDS011;62267;50.112;8.704;2023-02-28T13:39:00;10.00;;;8.70;;
1262;SDS011;62267;50.112;8.704;2023-02-28T13:44:18;10.07;;;7.80;;
1262;SDS011;62267;50.112;8.704;2023-02-28T13:49:26;9.73;;;7.90;;
1262;SDS011;62267;50.112;8.704;2023-02-28T14:05:40;8.30;;;7.50;;
1262;SDS011;62267;50.112;8.704;2023-02-28T14:08:18;9.57;;;7.67;;
1262;SDS011;62267;50.112;8.704;2023-02-28T14:10:51;11.10;;;7.47;;
1262;SDS011;62267;50.112;8.704;2023-02-28T14:13:40;9.33;;;7.90;;
1262;SDS011;62267;50.112;8.704;2023-02-28T14:16:13;11.70;;;10.23;;
1262;SDS011;62267;50.112;8.704;2023-02-28T14:19:30;8.60;;;7.03;;
1262;SDS011;62267;50.112;8.704;2023-02-28T14:21:33;9.13;;;7.97;;
1262;SDS011;62267;50.112;8.704;2023-02-28T14:24:23;10.37;;;9.27;;
1262;SDS011;62267;50.112;8.704;2023-02-28T14:27:03;9.20;;;8.17;;
1262;SDS011;62267;50.112;8.704;2023-02-28T14:29:45;11.20;;;9.10;;
1262;SDS011;62267;50.112;8.704;2023-02-28T14:32:32;10.47;;;8.57;;
1262;SDS011;62267;50.112;8.704;2023-02-28T14:37:32;9.27;;;7.93;;
1262;SDS011;62267;50.112;8.704;2023-02-28T14:40:00;8.80;;;7.53;;
1262;SDS011;62267;50.112;8.704;2023-02-28T14:42:31;9.40;;;7.93;;
1262;SDS011;62267;50.112;8.704;2023-02-28T14:44:59;10.93;;;8.90;;
1262;SDS011;62267;50.112;8.704;2023-02-28T14:47:33;10.37;;;8.53;;
1262;SDS011;62267;50.112;8.704;2023-02-28T14:50:03;9.43;;;8.40;;
1262;SDS011;62267;50.112;8.704;2023-02-28T14:52:33;10.77;;;7.80;;
1262;SDS011;62267;50.112;8.704;2023-02-28T14:55:05;8.40;;;7.33;;
1262;SDS011;62267;50.112;8.704;2023-02-28T14:57:35;10.77;;;9.07;;
1262;SDS011;62267;50.112;8.704;2023-02-28T15:00:15;11.60;;;9.83;;
1262;SDS011;62267;50.112;8.704;2023-02-28T15:02:42;11.23;;;8.93;;
1262;SDS011;62267;50.112;8.704;2023-02-28T15:07:47;15.80;;;9.50;;
1262;SDS011;62267;50.112;8.704;2023-02-28T15:10:21;9.47;;;8.47;;
1262;SDS011;62267;50.112;8.704;2023-02-28T15:12:51;12.00;;;9.60;;
1262;SDS011;62267;50.112;8.704;2023-02-28T15:15:20;10.80;;;8.20;;
1262;SDS011;62267;50.112;8.704;2023-02-28T15:18:01;10.23;;;9.10;;
1262;SDS011;62267;50.112;8.704;2023-02-28T15:20:30;9.87;;;8.87;;
1262;SDS011;62267;50.112;8.704;2023-02-28T15:22:59;10.50;;;8.57;;
1262;SDS011;62267;50.112;8.704;2023-02-28T15:25:26;10.03;;;7.83;;
1262;SDS011;62267;50.112;8.704;2023-02-28T15:27:55;9.23;;;8.00;;
1262;SDS011;62267;50.112;8.704;2023-02-28T15:30:26;13.30;;;9.27;;
1262;SDS011;62267;50.112;8.704;2023-02-28T15:35:43;9.33;;;8.33;;
1262;SDS011;62267;50.112;8.704;2023-02-28T15:38:26;8.70;;;7.00;;
1262;SDS011;62267;50.112;8.704;2023-02-28T15:40:55;12.80;;;8.63;;
1262;SDS011;62267;50.112;8.704;2023-02-28T15:43:31;10.10;;;7.73;;
1262;SDS011;62267;50.112;8.704;2023-02-28T15:48:35;9.93;;;8.80;;
1262;SDS011;62267;50.112;8.704;2023-02-28T15:51:14;9.27;;;8.03;;
1262;SDS011;62267;50.112;8.704;2023-02-28T15:53:48;9.57;;;8.57;;
1262;SDS011;62267;50.112;8.704;2023-02-28T15:56:24;12.23;;;9.37;;
1262;SDS011;62267;50.112;8.704;2023-02-28T15:58:57;8.70;;;7.70;;
1262;SDS011;62267;50.112;8.704;2023-02-28T16:01:28;8.90;;;7.90;;
1262;SDS011;62267;50.112;8.704;2023-02-28T16:04:05;9.80;;;8.50;;
1262;SDS011;62267;50.112;8.704;2023-02-28T16:06:39;12.57;;;8.70;;
1262;SDS011;62267;50.112;8.704;2023-02-28T16:09:14;9.67;;;8.70;;
1262;SDS011;62267;50.112;8.704;2023-02-28T16:12:01;10.53;;;8.07;;
1262;SDS011;62267;50.112;8.704;2023-02-28T16:14:31;11.13;;;8.53;;
1262;SDS011;62267;50.112;8.704;2023-02-28T16:20:13;12.67;;;8.30;;
1262;SDS011;62267;50.112;8.704;2023-02-28T16:22:50;9.30;;;8.00;;
1262;SDS011;62267;50.112;8.704;2023-02-28T16:25:23;10.63;;;8.70;;
1262;SDS011;62267;50.112;8.704;2023-02-28T16:27:53;10.30;;;8.60;;
1262;SDS011;62267;50.112;8.704;2023-02-28T16:30:22;8.90;;;7.73;;
1262;SDS011;62267;50.112;8.704;2023-02-28T16:32:56;11.10;;;9.00;;
1262;SDS011;62267;50.112;8.704;2023-02-28T16:35:24;10.07;;;8.77;;
1262;SDS011;62267;50.112;8.704;2023-02-28T16:37:54;9.57;;;8.20;;
1262;SDS011;62267;50.112;8.704;2023-02-28T16:40:24;10.20;;;8.60;;
1262;SDS011;62267;50.112;8.704;2023-02-28T16:42:52;11.00;;;8.67;;
1262;SDS011;62267;50.112;8.704;2023-02-28T16:45:29;9.13;;;7.77;;
1262;SDS011;62267;50.112;8.704;2023-02-28T16:47:58;9.53;;;8.40;;
1262;SDS011;62267;50.112;8.704;2023-02-28T16:50:26;9.37;;;8.20;;
1262;SDS011;62267;50.112;8.704;2023-02-28T16:52:57;13.90;;;8.73;;
1262;SDS011;62267;50.112;8.704;2023-02-28T16:55:25;11.60;;;9.13;;
1262;SDS011;62267;50.112;8.704;2023-02-28T16:57:54;11.60;;;9.00;;
1262;SDS011;62267;50.112;8.704;2023-02-28T17:00:25;11.10;;;9.30;;
1262;SDS011;62267;50.112;8.704;2023-02-28T17:02:53;9.63;;;8.63;;
1262;SDS011;62267;50.112;8.704;2023-02-28T17:05:22;12.80;;;8.83;;
1262;SDS011;62267;50.112;8.704;2023-02-28T17:07:53;10.70;;;9.03;;
1262;SDS011;62267;50.112;8.704;2023-02-28T17:10:23;10.70;;;8.10;;